This is the latest recevied weather packets stored in our database for station/object EW3591. If no packets are shown the sender has not sent any weather packets the latest 1 day(s).
| Time | Temp. | Humidity | Pressure | Rain* | Wind** | Luminosity | Snow |
|---|---|---|---|---|---|---|---|
| 1836274791 | 14.44° C | 80% | 1022.4 hPa | 0 mm | 0.45 m/s, 55° | - | - |
| 1836274671 | 14.44° C | 80% | 1022.4 hPa | 0 mm | 0.45 m/s, 12° | - | - |
| 1836274550 | 15° C | 80% | 1022.4 hPa | 0 mm | 0.45 m/s, 11° | - | - |
| 1836274522 | 14.44° C | 80% | 1022.5 hPa | 0 mm | 0.45 m/s, 33° | - | - |
| 1836274430 | 15° C | 80% | 1022.4 hPa | 0 mm | 0.89 m/s, 33° | - | - |
| 1836274402 | 14.44° C | 80% | 1022.4 hPa | 0 mm | 0 m/s | - | - |
| 1836274310 | 15° C | 80% | 1022.4 hPa | 0 mm | 0.45 m/s, 36° | - | - |
| 1836274282 | 14.44° C | 80% | 1022.4 hPa | 0 mm | 0 m/s | - | - |
| 1836274190 | 15° C | 80% | 1022.4 hPa | 0 mm | 1.34 m/s, 28° | - | - |
| 1836274162 | 14.44° C | 80% | 1022.3 hPa | 0 mm | 0.45 m/s, 28° | - | - |
| 1836274069 | 15° C | 80% | 1022.3 hPa | 0 mm | 1.34 m/s, 34° | - | - |
| 1836273949 | 15° C | 80% | 1022.4 hPa | 0 mm | 0.89 m/s, 43° | - | - |
| 1778049124 | 7.78° C | 96% | 1007.9 hPa | 1.52 mm | 0 m/s | - | - |
| 1778049003 | 7.78° C | 96% | 1007.9 hPa | 1.27 mm | 0 m/s | - | - |
| 1778048883 | 7.78° C | 96% | 1007.8 hPa | 1.27 mm | 0 m/s | - | - |
| 1778048763 | 7.78° C | 96% | 1007.7 hPa | 1.52 mm | 0 m/s | - | - |
| 1778048643 | 7.78° C | 96% | 1007.8 hPa | 1.52 mm | 0 m/s | - | - |
| 1778048522 | 7.78° C | 96% | 1007.9 hPa | 1.52 mm | 0 m/s | - | - |
| 1778048402 | 7.78° C | 96% | 1007.9 hPa | 1.78 mm | 0 m/s | - | - |
| 1778048282 | 7.78° C | 96% | 1007.9 hPa | 1.52 mm | 0 m/s | - | - |
| 1778048161 | 7.78° C | 96% | 1007.9 hPa | 1.52 mm | 0 m/s | - | - |
| 1778048041 | 7.78° C | 97% | 1007.8 hPa | 1.52 mm | 0 m/s | - | - |
| 1778047921 | 7.78° C | 97% | 1007.6 hPa | 1.78 mm | 0 m/s | - | - |
| 1778047800 | 7.78° C | 97% | 1007.9 hPa | 1.78 mm | 0 m/s | - | - |
| 1778047680 | 7.78° C | 97% | 1007.9 hPa | 1.78 mm | 0 m/s | - | - |
* Rain latest hour (hover to see other rain measurements)
** Current wind speed in m/s (hover to see current wind gust speed)